sensor_id;sensor_type;location;lat;lon;timestamp;P1;durP1;ratioP1;P2;durP2;ratioP2
41923;SDS011;27613;48.116;11.656;2023-06-10T00:01:59;4.15;;;3.13;;
41923;SDS011;27613;48.116;11.656;2023-06-10T00:04:27;3.42;;;2.88;;
41923;SDS011;27613;48.116;11.656;2023-06-10T00:06:52;3.92;;;3.08;;
41923;SDS011;27613;48.116;11.656;2023-06-10T00:09:18;4.45;;;3.30;;
41923;SDS011;27613;48.116;11.656;2023-06-10T00:11:46;3.92;;;3.40;;
41923;SDS011;27613;48.116;11.656;2023-06-10T00:14:12;4.43;;;3.10;;
41923;SDS011;27613;48.116;11.656;2023-06-10T00:16:37;4.60;;;3.17;;
41923;SDS011;27613;48.116;11.656;2023-06-10T00:19:04;3.67;;;3.08;;
41923;SDS011;27613;48.116;11.656;2023-06-10T00:21:30;5.03;;;2.78;;
41923;SDS011;27613;48.116;11.656;2023-06-10T00:24:11;3.25;;;2.85;;
41923;SDS011;27613;48.116;11.656;2023-06-10T00:26:40;3.88;;;3.10;;
41923;SDS011;27613;48.116;11.656;2023-06-10T00:29:06;3.90;;;3.15;;
41923;SDS011;27613;48.116;11.656;2023-06-10T00:31:36;4.18;;;3.25;;
41923;SDS011;27613;48.116;11.656;2023-06-10T00:34:02;3.45;;;2.83;;
41923;SDS011;27613;48.116;11.656;2023-06-10T00:36:28;3.38;;;2.80;;
41923;SDS011;27613;48.116;11.656;2023-06-10T00:38:54;4.20;;;3.05;;
41923;SDS011;27613;48.116;11.656;2023-06-10T00:41:20;4.30;;;3.00;;
41923;SDS011;27613;48.116;11.656;2023-06-10T00:43:45;3.53;;;2.72;;
41923;SDS011;27613;48.116;11.656;2023-06-10T00:46:11;3.28;;;2.58;;
41923;SDS011;27613;48.116;11.656;2023-06-10T00:48:38;3.03;;;2.55;;
41923;SDS011;27613;48.116;11.656;2023-06-10T00:51:05;3.45;;;2.90;;
41923;SDS011;27613;48.116;11.656;2023-06-10T00:53:33;3.60;;;2.95;;
41923;SDS011;27613;48.116;11.656;2023-06-10T00:56:00;4.00;;;3.17;;
41923;SDS011;27613;48.116;11.656;2023-06-10T00:58:25;3.55;;;2.97;;
41923;SDS011;27613;48.116;11.656;2023-06-10T01:00:52;3.65;;;2.70;;
41923;SDS011;27613;48.116;11.656;2023-06-10T01:03:18;4.38;;;3.40;;
41923;SDS011;27613;48.116;11.656;2023-06-10T01:05:44;3.50;;;2.65;;
41923;SDS011;27613;48.116;11.656;2023-06-10T01:10:57;3.58;;;2.97;;
41923;SDS011;27613;48.116;11.656;2023-06-10T01:13:25;4.03;;;2.95;;
41923;SDS011;27613;48.116;11.656;2023-06-10T01:15:57;3.13;;;2.60;;
41923;SDS011;27613;48.116;11.656;2023-06-10T01:18:23;3.10;;;2.55;;
41923;SDS011;27613;48.116;11.656;2023-06-10T01:20:55;3.78;;;3.25;;
41923;SDS011;27613;48.116;11.656;2023-06-10T01:23:21;4.25;;;3.03;;
41923;SDS011;27613;48.116;11.656;2023-06-10T01:26:03;3.55;;;2.60;;
41923;SDS011;27613;48.116;11.656;2023-06-10T01:28:36;3.85;;;2.95;;
41923;SDS011;27613;48.116;11.656;2023-06-10T01:33:38;3.30;;;2.78;;
41923;SDS011;27613;48.116;11.656;2023-06-10T01:36:08;3.80;;;2.90;;
41923;SDS011;27613;48.116;11.656;2023-06-10T01:38:39;3.30;;;2.70;;
41923;SDS011;27613;48.116;11.656;2023-06-10T01:41:07;3.58;;;3.13;;
41923;SDS011;27613;48.116;11.656;2023-06-10T01:43:34;5.32;;;3.05;;
41923;SDS011;27613;48.116;11.656;2023-06-10T01:46:02;3.92;;;2.45;;
41923;SDS011;27613;48.116;11.656;2023-06-10T01:48:27;4.05;;;3.05;;
41923;SDS011;27613;48.116;11.656;2023-06-10T01:50:53;3.30;;;2.72;;
41923;SDS011;27613;48.116;11.656;2023-06-10T01:53:20;4.15;;;3.05;;
41923;SDS011;27613;48.116;11.656;2023-06-10T01:55:47;3.22;;;2.60;;
41923;SDS011;27613;48.116;11.656;2023-06-10T01:58:12;3.15;;;2.40;;
41923;SDS011;27613;48.116;11.656;2023-06-10T02:00:38;4.50;;;3.22;;
41923;SDS011;27613;48.116;11.656;2023-06-10T02:03:03;3.75;;;2.95;;
41923;SDS011;27613;48.116;11.656;2023-06-10T02:05:29;4.03;;;3.10;;
41923;SDS011;27613;48.116;11.656;2023-06-10T02:07:54;3.22;;;2.55;;
41923;SDS011;27613;48.116;11.656;2023-06-10T02:10:20;3.20;;;2.55;;
41923;SDS011;27613;48.116;11.656;2023-06-10T02:12:46;3.35;;;2.85;;
41923;SDS011;27613;48.116;11.656;2023-06-10T02:15:11;3.38;;;2.60;;
41923;SDS011;27613;48.116;11.656;2023-06-10T02:17:37;5.40;;;3.45;;
41923;SDS011;27613;48.116;11.656;2023-06-10T02:20:02;4.32;;;3.20;;
41923;SDS011;27613;48.116;11.656;2023-06-10T02:22:32;3.97;;;3.08;;
41923;SDS011;27613;48.116;11.656;2023-06-10T02:24:58;4.22;;;3.05;;
41923;SDS011;27613;48.116;11.656;2023-06-10T02:27:23;3.90;;;2.97;;
41923;SDS011;27613;48.116;11.656;2023-06-10T02:29:49;4.13;;;3.33;;
41923;SDS011;27613;48.116;11.656;2023-06-10T02:32:15;4.22;;;3.38;;
41923;SDS011;27613;48.116;11.656;2023-06-10T02:34:41;4.85;;;3.05;;
41923;SDS011;27613;48.116;11.656;2023-06-10T02:37:07;4.65;;;3.22;;
41923;SDS011;27613;48.116;11.656;2023-06-10T02:39:33;3.90;;;3.15;;
41923;SDS011;27613;48.116;11.656;2023-06-10T02:41:59;4.30;;;3.13;;
41923;SDS011;27613;48.116;11.656;2023-06-10T02:44:25;4.32;;;2.95;;
41923;SDS011;27613;48.116;11.656;2023-06-10T02:46:50;3.78;;;3.03;;
41923;SDS011;27613;48.116;11.656;2023-06-10T02:49:16;3.55;;;2.85;;
41923;SDS011;27613;48.116;11.656;2023-06-10T02:51:42;4.15;;;3.38;;
41923;SDS011;27613;48.116;11.656;2023-06-10T02:54:07;4.50;;;3.10;;
41923;SDS011;27613;48.116;11.656;2023-06-10T02:56:33;3.58;;;2.92;;
41923;SDS011;27613;48.116;11.656;2023-06-10T02:58:58;4.10;;;3.40;;
41923;SDS011;27613;48.116;11.656;2023-06-10T03:01:25;3.40;;;2.88;;
41923;SDS011;27613;48.116;11.656;2023-06-10T03:03:51;3.70;;;3.00;;
41923;SDS011;27613;48.116;11.656;2023-06-10T03:06:17;4.40;;;3.53;;
41923;SDS011;27613;48.116;11.656;2023-06-10T03:08:43;3.67;;;3.03;;
41923;SDS011;27613;48.116;11.656;2023-06-10T03:11:08;3.88;;;3.13;;
41923;SDS011;27613;48.116;11.656;2023-06-10T03:13:35;5.00;;;3.65;;
41923;SDS011;27613;48.116;11.656;2023-06-10T03:16:00;3.70;;;3.13;;
41923;SDS011;27613;48.116;11.656;2023-06-10T03:18:28;4.00;;;3.28;;
41923;SDS011;27613;48.116;11.656;2023-06-10T03:20:56;3.35;;;2.85;;
41923;SDS011;27613;48.116;11.656;2023-06-10T03:23:22;5.72;;;3.70;;
41923;SDS011;27613;48.116;11.656;2023-06-10T03:25:48;5.50;;;3.28;;
41923;SDS011;27613;48.116;11.656;2023-06-10T03:28:14;5.25;;;3.40;;
41923;SDS011;27613;48.116;11.656;2023-06-10T03:30:39;3.83;;;3.03;;
41923;SDS011;27613;48.116;11.656;2023-06-10T03:33:05;4.68;;;3.67;;
41923;SDS011;27613;48.116;11.656;2023-06-10T03:35:31;4.55;;;3.60;;
41923;SDS011;27613;48.116;11.656;2023-06-10T03:37:59;4.63;;;3.45;;
41923;SDS011;27613;48.116;11.656;2023-06-10T03:40:25;9.65;;;4.03;;
41923;SDS011;27613;48.116;11.656;2023-06-10T03:42:51;3.67;;;3.10;;
41923;SDS011;27613;48.116;11.656;2023-06-10T03:45:16;5.10;;;3.88;;
41923;SDS011;27613;48.116;11.656;2023-06-10T03:47:42;4.63;;;3.75;;
41923;SDS011;27613;48.116;11.656;2023-06-10T03:50:08;4.15;;;3.60;;
41923;SDS011;27613;48.116;11.656;2023-06-10T03:52:35;4.32;;;3.63;;
41923;SDS011;27613;48.116;11.656;2023-06-10T03:55:00;4.43;;;3.35;;
41923;SDS011;27613;48.116;11.656;2023-06-10T03:57:26;4.72;;;4.00;;
41923;SDS011;27613;48.116;11.656;2023-06-10T03:59:52;4.07;;;3.38;;
41923;SDS011;27613;48.116;11.656;2023-06-10T04:02:17;5.15;;;4.40;;
41923;SDS011;27613;48.116;11.656;2023-06-10T04:04:43;6.55;;;4.40;;
41923;SDS011;27613;48.116;11.656;2023-06-10T04:07:08;5.40;;;4.15;;
41923;SDS011;27613;48.116;11.656;2023-06-10T04:09:34;4.90;;;3.92;;
41923;SDS011;27613;48.116;11.656;2023-06-10T04:12:01;5.50;;;4.32;;
41923;SDS011;27613;48.116;11.656;2023-06-10T04:14:27;4.78;;;4.10;;
41923;SDS011;27613;48.116;11.656;2023-06-10T04:16:53;6.28;;;4.82;;
41923;SDS011;27613;48.116;11.656;2023-06-10T04:19:18;5.65;;;4.43;;
41923;SDS011;27613;48.116;11.656;2023-06-10T04:21:45;5.47;;;3.85;;
41923;SDS011;27613;48.116;11.656;2023-06-10T04:24:10;5.20;;;4.60;;
41923;SDS011;27613;48.116;11.656;2023-06-10T04:26:36;5.32;;;4.57;;
41923;SDS011;27613;48.116;11.656;2023-06-10T04:29:02;5.35;;;4.55;;
41923;SDS011;27613;48.116;11.656;2023-06-10T04:31:27;7.68;;;5.53;;
41923;SDS011;27613;48.116;11.656;2023-06-10T04:33:53;5.80;;;4.93;;
41923;SDS011;27613;48.116;11.656;2023-06-10T04:36:19;6.63;;;5.28;;
41923;SDS011;27613;48.116;11.656;2023-06-10T04:38:44;9.07;;;4.82;;
41923;SDS011;27613;48.116;11.656;2023-06-10T04:41:10;4.88;;;4.38;;
41923;SDS011;27613;48.116;11.656;2023-06-10T04:43:36;6.15;;;5.15;;
41923;SDS011;27613;48.116;11.656;2023-06-10T04:46:02;5.05;;;4.50;;
41923;SDS011;27613;48.116;11.656;2023-06-10T04:48:27;5.35;;;4.85;;
41923;SDS011;27613;48.116;11.656;2023-06-10T04:50:53;5.45;;;4.88;;
41923;SDS011;27613;48.116;11.656;2023-06-10T04:53:19;7.18;;;5.07;;
41923;SDS011;27613;48.116;11.656;2023-06-10T04:55:45;6.75;;;5.43;;
41923;SDS011;27613;48.116;11.656;2023-06-10T04:58:11;5.20;;;4.40;;
41923;SDS011;27613;48.116;11.656;2023-06-10T05:00:37;5.18;;;4.47;;
41923;SDS011;27613;48.116;11.656;2023-06-10T05:03:02;5.53;;;4.80;;
41923;SDS011;27613;48.116;11.656;2023-06-10T05:05:28;5.57;;;5.00;;
41923;SDS011;27613;48.116;11.656;2023-06-10T05:07:53;4.90;;;4.40;;
41923;SDS011;27613;48.116;11.656;2023-06-10T05:10:19;5.47;;;4.93;;
41923;SDS011;27613;48.116;11.656;2023-06-10T05:12:45;6.30;;;5.20;;
41923;SDS011;27613;48.116;11.656;2023-06-10T05:15:10;6.22;;;5.30;;
41923;SDS011;27613;48.116;11.656;2023-06-10T05:17:36;5.00;;;4.35;;
41923;SDS011;27613;48.116;11.656;2023-06-10T05:20:02;6.95;;;5.43;;
41923;SDS011;27613;48.116;11.656;2023-06-10T05:22:28;5.78;;;5.03;;
41923;SDS011;27613;48.116;11.656;2023-06-10T05:24:53;5.20;;;4.70;;
41923;SDS011;27613;48.116;11.656;2023-06-10T05:27:19;6.75;;;5.53;;
41923;SDS011;27613;48.116;11.656;2023-06-10T05:29:44;5.45;;;4.70;;
41923;SDS011;27613;48.116;11.656;2023-06-10T05:32:10;6.63;;;5.28;;
41923;SDS011;27613;48.116;11.656;2023-06-10T05:34:36;7.80;;;5.47;;
41923;SDS011;27613;48.116;11.656;2023-06-10T05:37:02;6.18;;;4.97;;
41923;SDS011;27613;48.116;11.656;2023-06-10T05:39:28;5.90;;;5.30;;
41923;SDS011;27613;48.116;11.656;2023-06-10T05:41:53;6.03;;;5.43;;
41923;SDS011;27613;48.116;11.656;2023-06-10T05:44:19;6.28;;;4.90;;
41923;SDS011;27613;48.116;11.656;2023-06-10T05:46:44;5.28;;;4.78;;
41923;SDS011;27613;48.116;11.656;2023-06-10T05:49:10;6.07;;;5.38;;
41923;SDS011;27613;48.116;11.656;2023-06-10T05:51:36;6.50;;;4.70;;
41923;SDS011;27613;48.116;11.656;2023-06-10T05:54:02;6.00;;;5.40;;
41923;SDS011;27613;48.116;11.656;2023-06-10T05:56:27;5.53;;;4.82;;
41923;SDS011;27613;48.116;11.656;2023-06-10T05:58:53;5.95;;;4.93;;
41923;SDS011;27613;48.116;11.656;2023-06-10T06:01:19;6.20;;;5.25;;
41923;SDS011;27613;48.116;11.656;2023-06-10T06:03:44;5.50;;;4.93;;
41923;SDS011;27613;48.116;11.656;2023-06-10T06:06:10;5.88;;;5.28;;
41923;SDS011;27613;48.116;11.656;2023-06-10T06:08:35;5.28;;;4.75;;
41923;SDS011;27613;48.116;11.656;2023-06-10T06:11:01;6.10;;;4.93;;
41923;SDS011;27613;48.116;11.656;2023-06-10T06:13:26;5.18;;;4.68;;
41923;SDS011;27613;48.116;11.656;2023-06-10T06:15:52;5.75;;;4.50;;
41923;SDS011;27613;48.116;11.656;2023-06-10T06:18:17;5.07;;;4.38;;
41923;SDS011;27613;48.116;11.656;2023-06-10T06:20:43;5.65;;;4.75;;
41923;SDS011;27613;48.116;11.656;2023-06-10T06:23:09;5.20;;;4.60;;
41923;SDS011;27613;48.116;11.656;2023-06-10T06:25:35;5.38;;;4.57;;
41923;SDS011;27613;48.116;11.656;2023-06-10T06:28:03;6.32;;;4.88;;
41923;SDS011;27613;48.116;11.656;2023-06-10T06:30:31;4.95;;;4.03;;
41923;SDS011;27613;48.116;11.656;2023-06-10T06:32:56;4.85;;;4.35;;
41923;SDS011;27613;48.116;11.656;2023-06-10T06:35:22;6.05;;;4.82;;
41923;SDS011;27613;48.116;11.656;2023-06-10T06:37:47;4.80;;;4.30;;
41923;SDS011;27613;48.116;11.656;2023-06-10T06:40:13;5.43;;;4.10;;
41923;SDS011;27613;48.116;11.656;2023-06-10T06:42:39;4.15;;;3.75;;
41923;SDS011;27613;48.116;11.656;2023-06-10T06:45:04;5.07;;;4.57;;
41923;SDS011;27613;48.116;11.656;2023-06-10T06:47:30;5.20;;;4.45;;
41923;SDS011;27613;48.116;11.656;2023-06-10T06:49:56;5.75;;;4.95;;
41923;SDS011;27613;48.116;11.656;2023-06-10T06:52:21;5.45;;;4.45;;
41923;SDS011;27613;48.116;11.656;2023-06-10T06:54:47;4.60;;;4.10;;
41923;SDS011;27613;48.116;11.656;2023-06-10T06:57:13;5.75;;;4.80;;
41923;SDS011;27613;48.116;11.656;2023-06-10T06:59:38;7.10;;;5.15;;
41923;SDS011;27613;48.116;11.656;2023-06-10T07:02:04;5.90;;;4.65;;
41923;SDS011;27613;48.116;11.656;2023-06-10T07:04:30;6.03;;;4.03;;
41923;SDS011;27613;48.116;11.656;2023-06-10T07:06:56;5.63;;;4.20;;
41923;SDS011;27613;48.116;11.656;2023-06-10T07:09:21;5.00;;;4.50;;
41923;SDS011;27613;48.116;11.656;2023-06-10T07:11:47;5.45;;;3.75;;
41923;SDS011;27613;48.116;11.656;2023-06-10T07:14:12;4.82;;;4.30;;
41923;SDS011;27613;48.116;11.656;2023-06-10T07:16:38;4.20;;;3.80;;
41923;SDS011;27613;48.116;11.656;2023-06-10T07:19:03;5.50;;;4.13;;
41923;SDS011;27613;48.116;11.656;2023-06-10T07:21:29;4.85;;;3.78;;
41923;SDS011;27613;48.116;11.656;2023-06-10T07:23:55;4.30;;;3.85;;
41923;SDS011;27613;48.116;11.656;2023-06-10T07:26:24;4.85;;;4.13;;
41923;SDS011;27613;48.116;11.656;2023-06-10T07:28:50;5.50;;;3.80;;
41923;SDS011;27613;48.116;11.656;2023-06-10T07:31:16;5.93;;;3.67;;
41923;SDS011;27613;48.116;11.656;2023-06-10T07:33:42;4.55;;;3.72;;
41923;SDS011;27613;48.116;11.656;2023-06-10T07:36:08;4.50;;;3.55;;
41923;SDS011;27613;48.116;11.656;2023-06-10T07:38:34;4.50;;;3.78;;
41923;SDS011;27613;48.116;11.656;2023-06-10T07:41:00;3.80;;;3.40;;
41923;SDS011;27613;48.116;11.656;2023-06-10T07:43:26;4.50;;;3.40;;
41923;SDS011;27613;48.116;11.656;2023-06-10T07:45:52;4.30;;;3.60;;
41923;SDS011;27613;48.116;11.656;2023-06-10T07:48:17;3.65;;;2.97;;
41923;SDS011;27613;48.116;11.656;2023-06-10T07:50:43;4.18;;;3.45;;
41923;SDS011;27613;48.116;11.656;2023-06-10T07:53:08;3.88;;;2.83;;
41923;SDS011;27613;48.116;11.656;2023-06-10T07:55:34;3.47;;;2.80;;
41923;SDS011;27613;48.116;11.656;2023-06-10T07:58:00;4.00;;;3.10;;
41923;SDS011;27613;48.116;11.656;2023-06-10T08:00:25;3.33;;;2.67;;
41923;SDS011;27613;48.116;11.656;2023-06-10T08:02:51;3.53;;;3.08;;
41923;SDS011;27613;48.116;11.656;2023-06-10T08:05:16;3.15;;;2.65;;
41923;SDS011;27613;48.116;11.656;2023-06-10T08:07:42;3.20;;;2.90;;
41923;SDS011;27613;48.116;11.656;2023-06-10T08:10:08;5.15;;;3.40;;
41923;SDS011;27613;48.116;11.656;2023-06-10T08:12:34;4.10;;;3.47;;
41923;SDS011;27613;48.116;11.656;2023-06-10T08:15:00;11.18;;;4.82;;
41923;SDS011;27613;48.116;11.656;2023-06-10T08:17:26;4.47;;;3.70;;
41923;SDS011;27613;48.116;11.656;2023-06-10T08:19:52;4.07;;;3.13;;
41923;SDS011;27613;48.116;11.656;2023-06-10T08:22:18;4.38;;;3.33;;
41923;SDS011;27613;48.116;11.656;2023-06-10T08:24:44;3.45;;;3.10;;
41923;SDS011;27613;48.116;11.656;2023-06-10T08:27:09;3.47;;;2.90;;
41923;SDS011;27613;48.116;11.656;2023-06-10T08:29:35;3.45;;;2.60;;
41923;SDS011;27613;48.116;11.656;2023-06-10T08:32:01;5.65;;;3.30;;
41923;SDS011;27613;48.116;11.656;2023-06-10T08:34:27;4.10;;;3.15;;
41923;SDS011;27613;48.116;11.656;2023-06-10T08:36:52;3.03;;;2.42;;
41923;SDS011;27613;48.116;11.656;2023-06-10T08:39:20;3.78;;;2.88;;
41923;SDS011;27613;48.116;11.656;2023-06-10T08:42:10;3.60;;;2.58;;
41923;SDS011;27613;48.116;11.656;2023-06-10T08:44:46;2.78;;;2.10;;
41923;SDS011;27613;48.116;11.656;2023-06-10T08:47:18;3.25;;;1.75;;
41923;SDS011;27613;48.116;11.656;2023-06-10T08:49:46;1.85;;;1.63;;
41923;SDS011;27613;48.116;11.656;2023-06-10T08:52:21;2.13;;;1.80;;
41923;SDS011;27613;48.116;11.656;2023-06-10T08:54:59;3.05;;;2.35;;
41923;SDS011;27613;48.116;11.656;2023-06-10T08:57:28;4.03;;;2.85;;
41923;SDS011;27613;48.116;11.656;2023-06-10T08:59:55;3.30;;;2.80;;
41923;SDS011;27613;48.116;11.656;2023-06-10T09:02:22;4.10;;;3.30;;
41923;SDS011;27613;48.116;11.656;2023-06-10T09:04:49;3.75;;;2.80;;
41923;SDS011;27613;48.116;11.656;2023-06-10T09:07:15;4.97;;;2.40;;
41923;SDS011;27613;48.116;11.656;2023-06-10T09:09:42;6.30;;;2.55;;
41923;SDS011;27613;48.116;11.656;2023-06-10T09:12:09;3.10;;;2.50;;
41923;SDS011;27613;48.116;11.656;2023-06-10T09:14:35;6.60;;;2.55;;
41923;SDS011;27613;48.116;11.656;2023-06-10T09:17:01;3.05;;;2.40;;
41923;SDS011;27613;48.116;11.656;2023-06-10T09:19:28;3.17;;;2.42;;
41923;SDS011;27613;48.116;11.656;2023-06-10T09:21:54;3.83;;;2.50;;
41923;SDS011;27613;48.116;11.656;2023-06-10T09:24:23;3.50;;;2.72;;
41923;SDS011;27613;48.116;11.656;2023-06-10T09:26:49;3.72;;;2.92;;
41923;SDS011;27613;48.116;11.656;2023-06-10T09:29:16;3.55;;;2.30;;
41923;SDS011;27613;48.116;11.656;2023-06-10T09:31:42;2.25;;;1.67;;
41923;SDS011;27613;48.116;11.656;2023-06-10T09:34:10;6.30;;;1.80;;
41923;SDS011;27613;48.116;11.656;2023-06-10T09:36:40;3.83;;;2.42;;
41923;SDS011;27613;48.116;11.656;2023-06-10T09:39:15;2.45;;;1.88;;
41923;SDS011;27613;48.116;11.656;2023-06-10T09:41:42;2.65;;;2.05;;
41923;SDS011;27613;48.116;11.656;2023-06-10T09:44:11;2.28;;;1.77;;
41923;SDS011;27613;48.116;11.656;2023-06-10T09:46:46;3.25;;;2.42;;
41923;SDS011;27613;48.116;11.656;2023-06-10T09:49:13;2.60;;;2.03;;
41923;SDS011;27613;48.116;11.656;2023-06-10T09:51:48;2.75;;;1.80;;
41923;SDS011;27613;48.116;11.656;2023-06-10T09:54:23;2.42;;;1.73;;
41923;SDS011;27613;48.116;11.656;2023-06-10T09:56:49;2.05;;;1.67;;
41923;SDS011;27613;48.116;11.656;2023-06-10T09:59:19;2.03;;;1.63;;
41923;SDS011;27613;48.116;11.656;2023-06-10T10:01:54;2.25;;;1.65;;
41923;SDS011;27613;48.116;11.656;2023-06-10T10:04:24;1.55;;;1.33;;
41923;SDS011;27613;48.116;11.656;2023-06-10T10:06:50;2.30;;;1.75;;
41923;SDS011;27613;48.116;11.656;2023-06-10T10:09:16;1.50;;;1.40;;
41923;SDS011;27613;48.116;11.656;2023-06-10T10:11:41;1.50;;;1.35;;
41923;SDS011;27613;48.116;11.656;2023-06-10T10:14:09;2.22;;;1.70;;
41923;SDS011;27613;48.116;11.656;2023-06-10T10:16:36;1.73;;;1.38;;
41923;SDS011;27613;48.116;11.656;2023-06-10T10:19:04;1.70;;;1.50;;
41923;SDS011;27613;48.116;11.656;2023-06-10T10:21:40;1.42;;;1.30;;
41923;SDS011;27613;48.116;11.656;2023-06-10T10:26:35;1.35;;;1.15;;
41923;SDS011;27613;48.116;11.656;2023-06-10T10:32:01;1.75;;;1.50;;
41923;SDS011;27613;48.116;11.656;2023-06-10T10:34:46;1.75;;;1.50;;
41923;SDS011;27613;48.116;11.656;2023-06-10T10:37:20;2.10;;;1.73;;
41923;SDS011;27613;48.116;11.656;2023-06-10T10:39:46;1.90;;;1.50;;
41923;SDS011;27613;48.116;11.656;2023-06-10T10:42:12;2.10;;;1.73;;
41923;SDS011;27613;48.116;11.656;2023-06-10T10:44:39;2.15;;;1.80;;
41923;SDS011;27613;48.116;11.656;2023-06-10T10:47:07;2.00;;;1.40;;
41923;SDS011;27613;48.116;11.656;2023-06-10T10:49:34;2.17;;;1.50;;
41923;SDS011;27613;48.116;11.656;2023-06-10T10:52:02;1.75;;;1.35;;
41923;SDS011;27613;48.116;11.656;2023-06-10T10:54:36;1.50;;;1.30;;
41923;SDS011;27613;48.116;11.656;2023-06-10T10:57:11;2.10;;;1.33;;
41923;SDS011;27613;48.116;11.656;2023-06-10T10:59:56;1.47;;;1.30;;
41923;SDS011;27613;48.116;11.656;2023-06-10T11:04:56;2.08;;;1.45;;
41923;SDS011;27613;48.116;11.656;2023-06-10T11:07:24;2.88;;;1.63;;
41923;SDS011;27613;48.116;11.656;2023-06-10T11:09:59;2.47;;;1.35;;
41923;SDS011;27613;48.116;11.656;2023-06-10T11:15:13;2.80;;;1.58;;
41923;SDS011;27613;48.116;11.656;2023-06-10T11:23:07;2.33;;;1.52;;
41923;SDS011;27613;48.116;11.656;2023-06-10T11:25:39;1.23;;;1.00;;
41923;SDS011;27613;48.116;11.656;2023-06-10T11:28:18;1.58;;;1.27;;
41923;SDS011;27613;48.116;11.656;2023-06-10T11:30:44;1.63;;;1.30;;
41923;SDS011;27613;48.116;11.656;2023-06-10T11:33:14;1.17;;;1.02;;
41923;SDS011;27613;48.116;11.656;2023-06-10T11:35:41;1.80;;;1.23;;
41923;SDS011;27613;48.116;11.656;2023-06-10T11:38:08;1.42;;;1.20;;
41923;SDS011;27613;48.116;11.656;2023-06-10T11:40:34;1.20;;;1.08;;
41923;SDS011;27613;48.116;11.656;2023-06-10T11:43:01;1.17;;;1.08;;
41923;SDS011;27613;48.116;11.656;2023-06-10T11:45:29;1.30;;;1.20;;
41923;SDS011;27613;48.116;11.656;2023-06-10T11:47:58;1.10;;;1.00;;
41923;SDS011;27613;48.116;11.656;2023-06-10T11:50:31;1.10;;;1.00;;
41923;SDS011;27613;48.116;11.656;2023-06-10T11:52:57;1.30;;;1.20;;
41923;SDS011;27613;48.116;11.656;2023-06-10T11:55:23;1.10;;;1.00;;
41923;SDS011;27613;48.116;11.656;2023-06-10T11:58:27;1.25;;;1.00;;
41923;SDS011;27613;48.116;11.656;2023-06-10T12:00:54;1.15;;;1.05;;
41923;SDS011;27613;48.116;11.656;2023-06-10T12:03:26;1.02;;;0.95;;
41923;SDS011;27613;48.116;11.656;2023-06-10T12:06:01;1.15;;;1.05;;
41923;SDS011;27613;48.116;11.656;2023-06-10T12:08:28;1.10;;;1.00;;
41923;SDS011;27613;48.116;11.656;2023-06-10T12:10:55;1.05;;;0.95;;
41923;SDS011;27613;48.116;11.656;2023-06-10T12:13:21;0.95;;;0.95;;
41923;SDS011;27613;48.116;11.656;2023-06-10T12:15:48;1.30;;;1.20;;
41923;SDS011;27613;48.116;11.656;2023-06-10T12:18:20;1.15;;;1.05;;
41923;SDS011;27613;48.116;11.656;2023-06-10T12:20:47;1.10;;;1.00;;
41923;SDS011;27613;48.116;11.656;2023-06-10T12:23:13;1.38;;;0.90;;
41923;SDS011;27613;48.116;11.656;2023-06-10T12:25:43;1.20;;;1.10;;
41923;SDS011;27613;48.116;11.656;2023-06-10T12:28:15;2.55;;;1.20;;
41923;SDS011;27613;48.116;11.656;2023-06-10T12:30:42;1.40;;;1.20;;
41923;SDS011;27613;48.116;11.656;2023-06-10T12:33:15;1.45;;;1.30;;
41923;SDS011;27613;48.116;11.656;2023-06-10T12:35:48;1.73;;;1.10;;
41923;SDS011;27613;48.116;11.656;2023-06-10T12:38:14;1.10;;;1.00;;
41923;SDS011;27613;48.116;11.656;2023-06-10T12:40:50;1.20;;;1.10;;
41923;SDS011;27613;48.116;11.656;2023-06-10T12:43:33;1.05;;;0.95;;
41923;SDS011;27613;48.116;11.656;2023-06-10T12:46:09;1.02;;;0.98;;
41923;SDS011;27613;48.116;11.656;2023-06-10T12:48:36;1.30;;;1.20;;
41923;SDS011;27613;48.116;11.656;2023-06-10T12:51:15;1.40;;;1.20;;
41923;SDS011;27613;48.116;11.656;2023-06-10T12:53:41;1.75;;;1.30;;
41923;SDS011;27613;48.116;11.656;2023-06-10T12:56:07;1.52;;;1.38;;
41923;SDS011;27613;48.116;11.656;2023-06-10T12:58:32;1.20;;;1.10;;
41923;SDS011;27613;48.116;11.656;2023-06-10T13:00:58;1.55;;;1.15;;
41923;SDS011;27613;48.116;11.656;2023-06-10T13:03:24;1.52;;;1.40;;
41923;SDS011;27613;48.116;11.656;2023-06-10T13:05:49;1.67;;;1.40;;
41923;SDS011;27613;48.116;11.656;2023-06-10T13:08:15;1.52;;;1.23;;
41923;SDS011;27613;48.116;11.656;2023-06-10T13:10:41;1.67;;;1.35;;
41923;SDS011;27613;48.116;11.656;2023-06-10T13:13:07;1.65;;;1.35;;
41923;SDS011;27613;48.116;11.656;2023-06-10T13:15:34;1.65;;;1.40;;
41923;SDS011;27613;48.116;11.656;2023-06-10T13:18:03;1.30;;;1.20;;
41923;SDS011;27613;48.116;11.656;2023-06-10T13:20:29;1.77;;;1.42;;
41923;SDS011;27613;48.116;11.656;2023-06-10T13:22:55;1.60;;;1.48;;
41923;SDS011;27613;48.116;11.656;2023-06-10T13:25:21;2.63;;;1.80;;
41923;SDS011;27613;48.116;11.656;2023-06-10T13:27:48;1.92;;;1.50;;
41923;SDS011;27613;48.116;11.656;2023-06-10T13:30:13;1.75;;;1.45;;
41923;SDS011;27613;48.116;11.656;2023-06-10T13:32:39;2.13;;;1.77;;
41923;SDS011;27613;48.116;11.656;2023-06-10T13:35:05;1.23;;;1.13;;
41923;SDS011;27613;48.116;11.656;2023-06-10T13:37:32;1.52;;;1.27;;
41923;SDS011;27613;48.116;11.656;2023-06-10T13:39:58;1.40;;;1.30;;
41923;SDS011;27613;48.116;11.656;2023-06-10T13:42:24;1.20;;;1.10;;
41923;SDS011;27613;48.116;11.656;2023-06-10T13:44:51;1.10;;;1.00;;
41923;SDS011;27613;48.116;11.656;2023-06-10T13:47:16;1.30;;;1.10;;
41923;SDS011;27613;48.116;11.656;2023-06-10T13:49:42;1.33;;;1.10;;
41923;SDS011;27613;48.116;11.656;2023-06-10T13:52:08;1.40;;;1.23;;
41923;SDS011;27613;48.116;11.656;2023-06-10T13:54:33;1.27;;;1.13;;
41923;SDS011;27613;48.116;11.656;2023-06-10T13:57:01;1.08;;;1.00;;
41923;SDS011;27613;48.116;11.656;2023-06-10T13:59:27;0.90;;;0.90;;
41923;SDS011;27613;48.116;11.656;2023-06-10T14:01:52;0.90;;;0.90;;
41923;SDS011;27613;48.116;11.656;2023-06-10T14:04:18;1.25;;;1.15;;
41923;SDS011;27613;48.116;11.656;2023-06-10T14:06:43;1.90;;;1.20;;
41923;SDS011;27613;48.116;11.656;2023-06-10T14:09:10;1.25;;;1.15;;
41923;SDS011;27613;48.116;11.656;2023-06-10T14:11:38;1.20;;;1.10;;
41923;SDS011;27613;48.116;11.656;2023-06-10T14:14:04;1.33;;;1.10;;
41923;SDS011;27613;48.116;11.656;2023-06-10T14:16:30;1.23;;;1.10;;
41923;SDS011;27613;48.116;11.656;2023-06-10T14:18:56;1.58;;;1.15;;
41923;SDS011;27613;48.116;11.656;2023-06-10T14:21:21;1.20;;;1.10;;
41923;SDS011;27613;48.116;11.656;2023-06-10T14:23:47;1.30;;;1.20;;
41923;SDS011;27613;48.116;11.656;2023-06-10T14:26:13;1.42;;;1.30;;
41923;SDS011;27613;48.116;11.656;2023-06-10T14:28:39;1.35;;;1.20;;
41923;SDS011;27613;48.116;11.656;2023-06-10T14:31:05;1.30;;;1.10;;
41923;SDS011;27613;48.116;11.656;2023-06-10T14:33:30;1.15;;;1.05;;
41923;SDS011;27613;48.116;11.656;2023-06-10T14:35:56;0.90;;;0.85;;
41923;SDS011;27613;48.116;11.656;2023-06-10T14:38:22;1.00;;;0.90;;
41923;SDS011;27613;48.116;11.656;2023-06-10T14:40:48;1.05;;;0.95;;
41923;SDS011;27613;48.116;11.656;2023-06-10T14:43:13;1.10;;;0.98;;
41923;SDS011;27613;48.116;11.656;2023-06-10T14:45:39;1.20;;;0.90;;
41923;SDS011;27613;48.116;11.656;2023-06-10T14:48:05;1.13;;;1.00;;
41923;SDS011;27613;48.116;11.656;2023-06-10T14:50:31;1.48;;;1.25;;
41923;SDS011;27613;48.116;11.656;2023-06-10T14:53:00;1.90;;;1.27;;
41923;SDS011;27613;48.116;11.656;2023-06-10T14:55:27;1.55;;;1.00;;